Time;durP1;ratioP1;P1;durP2;ratioP2;P2;SDS_P1;SDS_P2;PMS_P1;PMS_P2;Temp;Humidity;BMP_temperature;BMP_pressure;BME280_temperature;BME280_humidity;BME280_pressure;Samples;Min_cycle;Max_cycle;Signal;HPM_P1;HPM_P2
2022/05/23 00:01:48;;;;;;;1.05;0.77;;;15.10;99.90;;;;;;6307849;22;20011;-94
2022/05/23 00:04:14;;;;;;;2.17;0.80;;;15.10;99.90;;;;;;6280239;22;20035;-94
2022/05/23 00:06:40;;;;;;;2.08;1.00;;;15.10;99.90;;;;;;6280167;22;20330;-92
2022/05/23 00:09:05;;;;;;;3.20;1.10;;;15.10;99.90;;;;;;6307680;22;20002;-94
2022/05/23 00:11:31;;;;;;;1.67;1.00;;;15.10;99.90;;;;;;6280948;22;20446;-94
2022/05/23 00:13:58;;;;;;;3.83;0.88;;;15.10;99.90;;;;;;6283559;22;20073;-90
2022/05/23 00:16:27;;;;;;;1.55;1.10;;;15.10;99.90;;;;;;6281930;22;20094;-95
2022/05/23 00:18:52;;;;;;;3.50;0.95;;;15.20;99.90;;;;;;6281391;22;20061;-92
2022/05/23 00:21:19;;;;;;;5.57;1.00;;;15.20;99.90;;;;;;6308459;22;19999;-89
2022/05/23 00:23:45;;;;;;;1.65;0.80;;;15.20;99.90;;;;;;6282144;22;20038;-93
2022/05/23 00:26:17;;;;;;;1.60;1.15;;;15.20;99.90;;;;;;6282910;22;19999;-93
2022/05/23 00:28:43;;;;;;;3.80;0.98;;;15.20;99.90;;;;;;6280747;22;20093;-94
2022/05/23 00:31:10;;;;;;;1.17;0.70;;;15.20;99.90;;;;;;6280004;22;20030;-91
2022/05/23 00:36:23;;;;;;;1.58;0.82;;;15.10;99.90;;;;;;6308969;22;20026;-94
2022/05/23 00:38:49;;;;;;;2.35;0.80;;;15.10;99.90;;;;;;6281165;22;20461;-94
2022/05/23 00:44:11;;;;;;;1.80;0.85;;;15.10;99.90;;;;;;6308812;22;20042;-93
2022/05/23 00:46:59;;;;;;;2.20;0.82;;;15.00;99.90;;;;;;6297257;22;20008;-94
2022/05/23 00:49:29;;;;;;;0.85;0.70;;;15.00;99.90;;;;;;6314169;22;20030;-93
2022/05/23 00:51:58;;;;;;;0.98;0.80;;;15.00;99.90;;;;;;6291003;22;20018;-95
2022/05/23 00:54:29;;;;;;;2.67;0.85;;;15.00;99.90;;;;;;6286248;22;20010;-94
2022/05/23 00:56:55;;;;;;;1.75;1.00;;;15.00;99.90;;;;;;6291072;22;20003;-92
2022/05/23 00:59:28;;;;;;;0.80;0.70;;;15.00;99.90;;;;;;6290622;22;20006;-92
2022/05/23 01:01:54;;;;;;;0.82;0.70;;;15.00;99.90;;;;;;6287096;22;20082;-95
2022/05/23 01:04:19;;;;;;;0.85;0.55;;;15.00;99.90;;;;;;6282300;22;20031;-93
2022/05/23 01:06:45;;;;;;;2.35;0.88;;;14.90;99.90;;;;;;6283187;22;20334;-94
2022/05/23 01:09:11;;;;;;;2.15;0.80;;;15.00;99.90;;;;;;6307911;22;19999;-94
2022/05/23 01:11:38;;;;;;;2.22;1.00;;;14.90;99.90;;;;;;6280487;22;20007;-94
2022/05/23 01:14:05;;;;;;;2.03;1.00;;;14.90;99.90;;;;;;6307442;22;20031;-92
2022/05/23 01:16:31;;;;;;;1.85;0.95;;;14.90;99.90;;;;;;6305436;22;20003;-95
2022/05/23 01:18:58;;;;;;;1.52;0.90;;;14.80;99.90;;;;;;6320639;22;20148;-95
2022/05/23 01:21:26;;;;;;;2.58;0.80;;;14.90;99.90;;;;;;6295927;22;20018;-94
2022/05/23 01:24:06;;;;;;;2.88;1.08;;;14.80;99.90;;;;;;6292699;22;20007;-94
2022/05/23 01:26:33;;;;;;;1.48;0.93;;;14.70;99.90;;;;;;6321159;22;19999;-95
2022/05/23 01:28:59;;;;;;;1.48;0.63;;;14.70;99.90;;;;;;6314372;22;20035;-92
2022/05/23 01:31:24;;;;;;;2.95;1.00;;;14.70;99.90;;;;;;6286937;22;20519;-92
2022/05/23 01:33:50;;;;;;;0.95;0.63;;;14.60;99.90;;;;;;6281342;22;20053;-94
2022/05/23 01:36:16;;;;;;;3.35;1.08;;;14.60;99.90;;;;;;6279897;22;20021;-93
2022/05/23 01:38:43;;;;;;;2.95;0.95;;;14.50;99.90;;;;;;6281660;22;20003;-95
2022/05/23 01:41:08;;;;;;;2.33;0.90;;;14.50;99.90;;;;;;6282720;22;19999;-95
2022/05/23 01:43:34;;;;;;;3.40;1.00;;;14.50;99.90;;;;;;6282899;22;20014;-95
2022/05/23 01:46:00;;;;;;;2.78;0.95;;;14.40;99.90;;;;;;6307440;22;20052;-94
2022/05/23 01:48:26;;;;;;;6.90;1.10;;;14.40;99.90;;;;;;6279159;22;20011;-95
2022/05/23 01:50:52;;;;;;;4.88;0.90;;;14.30;99.90;;;;;;6279645;22;20006;-95
2022/05/23 01:53:18;;;;;;;4.97;1.02;;;14.30;99.90;;;;;;6278835;22;20016;-92
2022/05/23 01:55:43;;;;;;;3.95;1.30;;;14.30;99.90;;;;;;6281998;22;20345;-94
2022/05/23 01:58:09;;;;;;;5.10;1.00;;;14.30;99.90;;;;;;6307396;22;20014;-93
2022/05/23 02:03:20;;;;;;;6.60;2.13;;;14.30;99.90;;;;;;6307346;22;20060;-93
2022/05/23 02:05:50;;;;;;;3.55;1.10;;;14.30;99.90;;;;;;6279166;22;20015;-94
2022/05/23 02:08:15;;;;;;;5.20;1.10;;;14.40;99.90;;;;;;6278441;22;20072;-95
2022/05/23 02:10:44;;;;;;;5.93;1.20;;;14.40;99.90;;;;;;6278223;22;20007;-95
2022/05/23 02:13:10;;;;;;;6.32;1.20;;;14.30;99.90;;;;;;6278178;22;20011;-93
2022/05/23 02:15:36;;;;;;;5.40;1.10;;;14.30;99.90;;;;;;6278221;22;19999;-95
2022/05/23 02:18:03;;;;;;;6.10;1.15;;;14.30;99.90;;;;;;6278342;22;20086;-93
2022/05/23 02:20:30;;;;;;;5.50;1.05;;;14.20;99.90;;;;;;6278411;22;20819;-93
2022/05/23 02:22:56;;;;;;;2.25;1.10;;;14.30;99.90;;;;;;6306636;22;20009;-95
2022/05/23 02:25:26;;;;;;;8.20;2.28;;;14.30;99.90;;;;;;6280185;22;20398;-95
2022/05/23 02:27:52;;;;;;;3.90;1.20;;;14.20;99.90;;;;;;6279065;22;20003;-93
2022/05/23 02:30:18;;;;;;;4.30;1.15;;;14.20;99.90;;;;;;6279283;22;20002;-96
2022/05/23 02:32:45;;;;;;;3.60;1.00;;;14.20;99.90;;;;;;6280080;22;20105;-94
2022/05/23 02:35:12;;;;;;;4.05;1.20;;;14.20;99.90;;;;;;6280332;22;20011;-93
2022/05/23 02:37:38;;;;;;;5.57;1.20;;;14.10;99.90;;;;;;6280315;22;20003;-96
2022/05/23 02:40:05;;;;;;;3.03;1.20;;;14.10;99.90;;;;;;6283259;22;20501;-94
2022/05/23 02:42:31;;;;;;;8.35;1.70;;;14.10;99.90;;;;;;6283458;22;20046;-94
2022/05/23 02:44:57;;;;;;;6.22;1.48;;;14.10;99.90;;;;;;6279852;22;20003;-94
2022/05/23 02:47:23;;;;;;;4.82;1.02;;;14.00;99.90;;;;;;6278956;22;19996;-94
2022/05/23 02:49:48;;;;;;;3.90;1.17;;;14.00;99.90;;;;;;6282549;22;20011;-94
2022/05/23 02:52:14;;;;;;;3.80;1.15;;;14.00;99.90;;;;;;6292557;22;20346;-95
2022/05/23 02:54:40;;;;;;;1.90;0.95;;;14.00;99.90;;;;;;6289809;22;20379;-95
2022/05/23 02:57:06;;;;;;;4.25;2.17;;;14.00;99.90;;;;;;6279794;22;20003;-95
2022/05/23 02:59:31;;;;;;;2.88;1.10;;;13.90;99.90;;;;;;6280071;22;20007;-94
2022/05/23 03:04:42;;;;;;;3.95;0.90;;;13.90;99.90;;;;;;6307575;22;20494;-94
2022/05/23 03:07:08;;;;;;;3.95;1.38;;;13.90;99.90;;;;;;6281161;22;20057;-94
2022/05/23 03:09:34;;;;;;;4.53;1.10;;;13.90;99.90;;;;;;6281039;22;20057;-94
2022/05/23 03:11:59;;;;;;;8.85;1.30;;;13.80;99.90;;;;;;6279951;22;20037;-94
2022/05/23 03:14:26;;;;;;;4.00;1.02;;;13.80;99.90;;;;;;6307717;22;20003;-93
2022/05/23 03:16:52;;;;;;;7.25;1.40;;;13.70;99.90;;;;;;6279563;22;20007;-94
2022/05/23 03:19:18;;;;;;;5.57;1.10;;;13.70;99.90;;;;;;6279977;22;20015;-95
2022/05/23 03:27:12;;;;;;;6.68;1.30;;;13.60;99.90;;;;;;6308513;22;20084;-95
2022/05/23 03:29:38;;;;;;;8.95;1.75;;;13.60;99.90;;;;;;6280577;22;20385;-95
2022/05/23 03:32:04;;;;;;;9.30;1.50;;;13.60;99.90;;;;;;6282066;22;20034;-95
2022/05/23 03:34:29;;;;;;;5.00;1.20;;;13.60;99.90;;;;;;6281178;22;20014;-94
2022/05/23 03:36:55;;;;;;;4.03;1.20;;;13.60;99.90;;;;;;6281353;22;20011;-94
2022/05/23 03:39:20;;;;;;;10.68;1.25;;;13.60;99.90;;;;;;6280874;22;20015;-94
2022/05/23 03:41:46;;;;;;;4.07;1.15;;;13.50;99.90;;;;;;6282102;22;20023;-92
2022/05/23 03:44:12;;;;;;;4.22;1.30;;;13.50;99.90;;;;;;6281133;22;20011;-93
2022/05/23 03:46:38;;;;;;;8.13;1.20;;;13.50;99.90;;;;;;6308100;22;20330;-95
2022/05/23 03:49:06;;;;;;;7.55;1.23;;;13.40;99.90;;;;;;6280719;22;19999;-94
2022/05/23 03:51:32;;;;;;;13.40;1.88;;;13.40;99.90;;;;;;6308235;22;20446;-94
2022/05/23 03:53:58;;;;;;;14.20;1.20;;;13.40;99.90;;;;;;6280267;22;20090;-91
2022/05/23 03:56:23;;;;;;;7.60;1.00;;;13.40;99.90;;;;;;6280176;22;19999;-95
2022/05/23 03:58:49;;;;;;;7.13;1.55;;;13.40;99.90;;;;;;6281412;22;20014;-94
2022/05/23 04:01:18;;;;;;;7.43;1.88;;;13.40;99.90;;;;;;6281400;22;20059;-94
2022/05/23 04:03:44;;;;;;;6.57;1.30;;;13.40;99.90;;;;;;6281822;22;20007;-95
2022/05/23 04:06:10;;;;;;;5.00;0.95;;;13.40;99.90;;;;;;6286847;22;20007;-93
2022/05/23 04:08:36;;;;;;;6.65;1.92;;;13.30;99.90;;;;;;6294874;22;20003;-95
2022/05/23 04:11:03;;;;;;;6.28;1.00;;;13.30;99.90;;;;;;6292358;22;19999;-93
2022/05/23 04:13:29;;;;;;;8.70;1.45;;;13.20;99.90;;;;;;6292278;22;20007;-91
2022/05/23 04:15:55;;;;;;;5.43;1.45;;;13.20;99.90;;;;;;6287424;22;20014;-92
2022/05/23 04:18:21;;;;;;;6.78;1.10;;;13.20;99.90;;;;;;6286083;22;20030;-91
2022/05/23 04:20:47;;;;;;;9.20;1.55;;;13.20;99.90;;;;;;6281184;22;20430;-95
2022/05/23 04:23:13;;;;;;;6.10;1.27;;;13.20;99.90;;;;;;6280007;22;20015;-94
2022/05/23 04:25:45;;;;;;;3.05;1.00;;;13.30;99.90;;;;;;6280129;22;20053;-95
2022/05/23 04:28:12;;;;;;;3.83;1.17;;;13.30;99.90;;;;;;6280477;22;20149;-92
2022/05/23 04:30:38;;;;;;;4.57;1.20;;;13.30;99.90;;;;;;6280962;22;20007;-94
2022/05/23 04:35:50;;;;;;;4.53;1.27;;;13.20;99.90;;;;;;6306844;22;20017;-94
2022/05/23 04:38:16;;;;;;;8.32;1.50;;;13.30;99.90;;;;;;6279184;22;20007;-94
2022/05/23 04:40:43;;;;;;;3.70;1.10;;;13.30;99.90;;;;;;6279848;22;20007;-93
2022/05/23 04:43:09;;;;;;;9.00;1.30;;;13.30;99.90;;;;;;6279853;22;20464;-95
2022/05/23 04:45:35;;;;;;;4.88;1.15;;;13.30;99.90;;;;;;6279447;22;20035;-94
2022/05/23 04:50:45;;;;;;;5.45;1.20;;;13.20;99.90;;;;;;6307458;22;20010;-93
2022/05/23 04:53:10;;;;;;;5.95;1.38;;;13.10;99.90;;;;;;6280049;22;20027;-95
2022/05/23 04:55:38;;;;;;;6.70;1.85;;;13.00;99.90;;;;;;6279635;22;19999;-94
2022/05/23 04:58:04;;;;;;;5.07;1.08;;;13.00;99.90;;;;;;6279992;22;20014;-92
2022/05/23 05:00:30;;;;;;;4.35;1.15;;;12.90;99.90;;;;;;6280019;22;20018;-93
2022/05/23 05:02:59;;;;;;;15.05;1.73;;;12.90;99.90;;;;;;6279859;22;20049;-95
2022/05/23 05:05:27;;;;;;;9.88;1.60;;;12.90;99.90;;;;;;6279873;22;20007;-95
2022/05/23 05:07:54;;;;;;;8.55;1.75;;;12.90;99.90;;;;;;6307799;22;20003;-96
2022/05/23 05:10:21;;;;;;;6.55;1.55;;;12.90;99.90;;;;;;6280977;22;20003;-95
2022/05/23 05:12:48;;;;;;;7.35;1.90;;;12.80;99.90;;;;;;6279573;22;20011;-95
2022/05/23 05:15:14;;;;;;;4.15;1.13;;;12.90;99.90;;;;;;6279635;22;20008;-95
2022/05/23 05:17:39;;;;;;;11.07;1.60;;;12.80;99.90;;;;;;6279601;22;20034;-94
2022/05/23 05:20:08;;;;;;;10.27;1.40;;;12.80;99.90;;;;;;6279527;22;20706;-95
2022/05/23 05:22:34;;;;;;;5.05;1.63;;;12.80;99.90;;;;;;6279595;22;20007;-94
2022/05/23 05:25:01;;;;;;;5.07;1.40;;;12.90;99.90;;;;;;6307140;22;20002;-93
2022/05/23 05:27:29;;;;;;;10.57;1.75;;;12.90;99.90;;;;;;6279446;22;20068;-95
2022/05/23 05:29:55;;;;;;;23.17;1.95;;;12.90;99.90;;;;;;6279835;22;20069;-93
2022/05/23 05:32:33;;;;;;;9.70;1.75;;;13.00;99.90;;;;;;6279921;22;20011;-93
2022/05/23 05:35:17;;;;;;;14.52;1.90;;;13.00;99.90;;;;;;6280040;22;20003;-93
2022/05/23 05:37:54;;;;;;;6.47;1.30;;;13.00;99.90;;;;;;6308623;22;20015;-95
2022/05/23 05:40:23;;;;;;;13.73;2.35;;;12.90;99.90;;;;;;6311334;22;20056;-96
2022/05/23 05:42:58;;;;;;;9.30;1.60;;;12.90;99.90;;;;;;6313030;22;20341;-94
2022/05/23 05:45:33;;;;;;;4.85;1.45;;;12.80;99.90;;;;;;6311418;22;20011;-93
2022/05/23 05:48:00;;;;;;;6.50;1.40;;;12.80;99.90;;;;;;6315094;22;20319;-95
2022/05/23 05:50:30;;;;;;;7.15;1.58;;;12.80;99.90;;;;;;6310670;22;20034;-94
2022/05/23 05:53:00;;;;;;;6.10;1.60;;;12.80;99.90;;;;;;6336728;22;20011;-94
2022/05/23 05:55:27;;;;;;;10.48;1.90;;;12.80;99.90;;;;;;6310703;22;20094;-94
2022/05/23 05:57:52;;;;;;;8.75;1.38;;;12.90;99.90;;;;;;6310351;22;20014;-93
2022/05/23 06:00:19;;;;;;;7.15;1.88;;;12.90;99.90;;;;;;6310773;22;20007;-94
2022/05/23 06:02:45;;;;;;;10.73;2.13;;;13.00;99.90;;;;;;6309350;22;20085;-94
2022/05/23 06:05:11;;;;;;;7.47;1.92;;;13.00;99.90;;;;;;6309480;22;20462;-92
2022/05/23 06:13:05;;;;;;;5.55;1.35;;;13.00;99.90;;;;;;6336319;22;20064;-92
2022/05/23 06:15:31;;;;;;;9.40;1.80;;;13.00;99.90;;;;;;6337109;22;20010;-92
2022/05/23 06:17:57;;;;;;;8.35;1.80;;;13.10;99.90;;;;;;6309396;22;20003;-93
2022/05/23 06:20:26;;;;;;;10.13;1.73;;;13.10;99.90;;;;;;6312541;22;20003;-92
2022/05/23 06:22:51;;;;;;;7.63;1.50;;;13.20;99.90;;;;;;6311287;22;20018;-93
2022/05/23 06:25:18;;;;;;;9.25;1.42;;;13.20;99.90;;;;;;6310462;22;19998;-93
2022/05/23 06:27:44;;;;;;;7.45;1.50;;;13.20;99.90;;;;;;6310082;22;20009;-93
2022/05/23 06:30:13;;;;;;;5.97;1.38;;;13.30;99.90;;;;;;6337948;22;20010;-92
2022/05/23 06:32:38;;;;;;;5.68;1.63;;;13.30;99.90;;;;;;6312961;22;20011;-91
2022/05/23 06:35:07;;;;;;;6.65;1.40;;;13.30;99.90;;;;;;6337717;22;19994;-92
2022/05/23 06:37:35;;;;;;;11.45;1.35;;;13.40;99.90;;;;;;6310850;22;20476;-92
2022/05/23 06:40:03;;;;;;;11.57;2.15;;;13.40;99.90;;;;;;6339459;22;20077;-92
2022/05/23 06:42:29;;;;;;;7.53;1.58;;;13.50;99.90;;;;;;6312062;22;20026;-92
2022/05/23 06:44:55;;;;;;;6.57;1.45;;;13.50;99.90;;;;;;6338446;22;20010;-93
2022/05/23 06:47:21;;;;;;;10.73;1.75;;;13.50;99.90;;;;;;6312946;22;20003;-93
2022/05/23 06:49:47;;;;;;;9.02;1.70;;;13.40;99.90;;;;;;6312458;22;20003;-92
2022/05/23 06:52:15;;;;;;;9.38;1.77;;;13.50;99.90;;;;;;6315321;22;20010;-93
2022/05/23 06:54:41;;;;;;;7.78;2.00;;;13.40;99.90;;;;;;6314934;22;20082;-91
2022/05/23 06:57:07;;;;;;;10.27;1.73;;;13.50;99.90;;;;;;6323845;22;20058;-93
2022/05/23 06:59:33;;;;;;;11.38;2.78;;;13.60;99.90;;;;;;6331223;22;19998;-94
2022/05/23 07:01:59;;;;;;;7.32;1.75;;;13.70;99.90;;;;;;6326686;22;20010;-94
2022/05/23 07:04:25;;;;;;;7.13;1.50;;;13.80;99.90;;;;;;6357283;22;20074;-94
2022/05/23 07:12:23;;;;;;;5.53;1.25;;;14.00;99.90;;;;;;6358906;22;20066;-92
2022/05/23 07:14:54;;;;;;;10.13;1.83;;;14.00;99.90;;;;;;6329942;22;20007;-94
2022/05/23 07:17:21;;;;;;;;;;;14.00;99.90;;;;;;6336788;22;20010;-93
2022/05/23 07:19:48;;;;;;;17.67;2.25;;;14.00;99.90;;;;;;6333853;22;19887;-93
2022/05/23 07:22:13;;;;;;;6.10;1.88;;;14.00;99.90;;;;;;6334465;22;20006;-93
2022/05/23 07:24:39;;;;;;;10.30;1.98;;;14.00;99.90;;;;;;6324058;22;20074;-93
2022/05/23 07:27:05;;;;;;;8.95;1.23;;;14.00;99.90;;;;;;6316099;22;20034;-92
2022/05/23 07:29:31;;;;;;;8.10;1.70;;;14.10;99.90;;;;;;6318291;22;20067;-89
2022/05/23 07:31:57;;;;;;;11.23;2.40;;;14.20;99.90;;;;;;6317008;22;20010;-94
2022/05/23 07:34:23;;;;;;;9.02;1.77;;;14.20;99.90;;;;;;6343020;22;20066;-94
2022/05/23 07:36:49;;;;;;;8.38;1.90;;;14.40;99.90;;;;;;6315874;22;20015;-91
2022/05/23 07:39:15;;;;;;;6.90;1.83;;;14.50;99.90;;;;;;6317269;22;20307;-92
2022/05/23 07:41:43;;;;;;;6.15;1.80;;;14.60;99.90;;;;;;6315904;22;20011;-92
2022/05/23 07:44:10;;;;;;;9.23;2.40;;;14.70;99.90;;;;;;6313993;22;20002;-93
2022/05/23 07:46:37;;;;;;;5.85;1.92;;;14.80;99.90;;;;;;6314546;22;20083;-92
2022/05/23 07:49:04;;;;;;;8.63;2.08;;;14.80;99.90;;;;;;6322176;22;20003;-91
2022/05/23 07:51:32;;;;;;;9.65;2.40;;;14.80;99.90;;;;;;6346440;22;20077;-92
2022/05/23 08:02:13;;;;;;;9.15;2.47;;;14.70;99.90;;;;;;6344510;22;20045;-93
2022/05/23 08:04:38;;;;;;;11.73;3.33;;;14.60;99.90;;;;;;6343452;22;20077;-94
2022/05/23 08:07:05;;;;;;;11.93;2.95;;;14.60;99.90;;;;;;6313186;22;20003;-93
2022/05/23 08:09:31;;;;;;;10.18;2.35;;;14.60;99.90;;;;;;6313352;22;20003;-94
2022/05/23 08:11:58;;;;;;;8.27;2.40;;;14.60;99.90;;;;;;6310708;22;20006;-92
2022/05/23 08:14:24;;;;;;;17.73;3.38;;;14.70;99.90;;;;;;6313977;22;20068;-93
2022/05/23 08:16:51;;;;;;;13.13;3.95;;;14.70;99.90;;;;;;6312160;22;20002;-90
2022/05/23 08:19:17;;;;;;;10.05;2.97;;;14.80;99.90;;;;;;6312628;22;20003;-93
2022/05/23 08:21:50;;;;;;;9.57;2.80;;;14.90;99.90;;;;;;6339131;22;20002;-95
2022/05/23 08:24:16;;;;;;;12.30;3.83;;;14.90;99.90;;;;;;6312710;22;19998;-94
2022/05/23 08:26:42;;;;;;;9.43;3.00;;;14.90;99.90;;;;;;6312911;22;20003;-94
2022/05/23 08:29:08;;;;;;;8.98;2.67;;;14.90;99.90;;;;;;6341002;22;19994;-95
2022/05/23 08:31:35;;;;;;;10.50;3.08;;;14.90;99.90;;;;;;6342264;22;20033;-94
2022/05/23 08:34:00;;;;;;;8.60;2.72;;;14.90;99.90;;;;;;6313080;22;20411;-93
2022/05/23 08:36:26;;;;;;;11.65;2.65;;;15.00;99.90;;;;;;6314220;22;20018;-94
2022/05/23 08:38:52;;;;;;;10.10;2.90;;;15.00;99.90;;;;;;6313521;22;20014;-91
2022/05/23 08:41:24;;;;;;;7.53;2.70;;;15.10;99.90;;;;;;6313645;22;20025;-94
2022/05/23 08:44:07;;;;;;;8.98;2.88;;;15.20;99.90;;;;;;6311234;22;20009;-93
2022/05/23 08:46:48;;;;;;;5.03;2.85;;;15.30;99.90;;;;;;6313855;22;20014;-91
2022/05/23 08:49:45;;;;;;;5.88;2.30;;;15.40;99.90;;;;;;6313544;22;20002;-93
2022/05/23 08:52:39;;;;;;;7.63;2.55;;;15.50;99.90;;;;;;6316135;22;20014;-94
2022/05/23 08:55:14;;;;;;;7.90;2.30;;;15.50;99.90;;;;;;6341011;22;20060;-94
2022/05/23 08:58:03;;;;;;;8.85;2.25;;;15.60;99.90;;;;;;6313688;22;19995;-94
2022/05/23 09:00:38;;;;;;;5.05;2.10;;;15.60;99.60;;;;;;6311393;22;20010;-92
2022/05/23 09:03:26;;;;;;;6.97;2.28;;;15.60;99.40;;;;;;6313830;22;20015;-94
2022/05/23 09:06:05;;;;;;;7.05;2.17;;;15.60;99.10;;;;;;6312708;22;19999;-90
2022/05/23 09:08:37;;;;;;;7.68;2.15;;;15.70;98.90;;;;;;6312151;22;20011;-92
2022/05/23 09:11:18;;;;;;;15.32;2.22;;;15.70;98.60;;;;;;6314233;22;20023;-93
2022/05/23 09:13:45;;;;;;;10.23;1.95;;;15.70;98.40;;;;;;6311237;22;20015;-92
2022/05/23 09:16:13;;;;;;;8.20;2.08;;;15.80;98.20;;;;;;6313968;22;20006;-92
2022/05/23 09:19:02;;;;;;;7.93;1.67;;;15.80;97.80;;;;;;6313851;22;20082;-93
2022/05/23 09:22:12;;;;;;;7.50;1.88;;;15.90;97.60;;;;;;6310461;22;20077;-93
2022/05/23 09:24:48;;;;;;;5.25;1.40;;;16.00;97.20;;;;;;6206706;23;20016;-93
2022/05/23 09:27:41;;;;;;;6.70;1.40;;;16.20;96.50;;;;;;6246768;23;20007;-93
2022/05/23 09:30:21;;;;;;;4.15;1.67;;;16.40;95.40;;;;;;6223133;23;20001;-92
2022/05/23 09:33:08;;;;;;;5.93;1.90;;;16.60;94.50;;;;;;6245495;23;20016;-91
2022/05/23 09:35:46;;;;;;;9.05;1.98;;;16.70;93.70;;;;;;6244999;23;20011;-91
2022/05/23 09:38:19;;;;;;;7.75;1.00;;;16.80;93.10;;;;;;6246972;23;20028;-92
2022/05/23 09:40:45;;;;;;;7.97;1.50;;;16.90;91.80;;;;;;6257900;23;20052;-93
2022/05/23 09:49:23;;;;;;;6.30;1.40;;;17.30;89.80;;;;;;6262739;23;20034;-92
2022/05/23 09:51:57;;;;;;;;;;;17.40;89.00;;;;;;6247896;23;20008;-93
2022/05/23 09:54:28;;;;;;;4.65;1.02;;;17.50;88.30;;;;;;6266901;23;19937;-93
2022/05/23 09:56:54;;;;;;;;;;;17.60;88.00;;;;;;6261390;23;20312;-93
2022/05/23 09:59:36;;;;;;;7.43;1.42;;;17.80;88.30;;;;;;6255394;23;19947;-90
2022/05/23 10:02:31;;;;;;;4.15;1.08;;;18.00;86.40;;;;;;6253435;23;20007;-94
2022/05/23 10:04:57;;;;;;;7.88;1.52;;;18.20;85.40;;;;;;6254111;23;20000;-94
2022/05/23 10:07:31;;;;;;;8.30;1.23;;;18.40;84.60;;;;;;6259332;23;20007;-94
2022/05/23 10:10:17;;;;;;;5.28;1.60;;;18.60;83.50;;;;;;6260851;23;20004;-89
2022/05/23 10:12:43;;;;;;;3.33;1.10;;;18.70;83.10;;;;;;6257209;23;20012;-93
2022/05/23 10:15:20;;;;;;;5.97;1.30;;;18.90;81.50;;;;;;6251885;23;20050;-93
2022/05/23 10:18:02;;;;;;;5.10;1.52;;;19.00;79.80;;;;;;6255367;23;20008;-95
2022/05/23 10:20:39;;;;;;;7.43;1.00;;;19.20;79.00;;;;;;6255537;23;20031;-94
2022/05/23 10:23:17;;;;;;;6.40;1.20;;;19.40;77.40;;;;;;6258016;22;20044;-95
2022/05/23 10:25:58;;;;;;;5.82;1.35;;;19.50;76.20;;;;;;6250932;23;20011;-95
2022/05/23 10:28:44;;;;;;;9.68;1.50;;;19.70;75.30;;;;;;6255327;23;20011;-95
2022/05/23 10:31:40;;;;;;;7.93;2.47;;;19.80;75.20;;;;;;6228735;23;20012;-96
2022/05/23 10:34:33;;;;;;;6.05;1.95;;;20.00;74.70;;;;;;6255897;23;20019;-95
2022/05/23 10:37:03;;;;;;;6.93;1.50;;;19.90;74.80;;;;;;6255312;23;20486;-95
2022/05/23 10:42:38;;;;;;;8.32;2.00;;;19.90;72.50;;;;;;6256685;23;20031;-94
2022/05/23 10:45:25;;;;;;;5.07;1.45;;;19.60;71.30;;;;;;6224693;23;20031;-95
2022/05/23 10:48:13;;;;;;;4.82;2.17;;;19.50;71.50;;;;;;6249236;23;20050;-92
2022/05/23 10:51:07;;;;;;;4.47;1.88;;;19.40;71.30;;;;;;6249304;23;20004;-93
2022/05/23 10:53:52;;;;;;;8.82;2.20;;;19.50;71.60;;;;;;6248630;23;20020;-92
2022/05/23 10:57:10;;;;;;;7.63;2.70;;;19.60;71.30;;;;;;6258175;23;20001;-93
2022/05/23 11:00:02;;;;;;;7.22;2.75;;;19.60;70.70;;;;;;6232777;23;20054;-95
2022/05/23 11:03:00;;;;;;;3.08;2.35;;;19.50;70.70;;;;;;6256790;23;20011;-96
2022/05/23 11:05:53;;;;;;;7.38;2.42;;;19.60;70.90;;;;;;6206781;23;20012;-94
2022/05/23 11:08:37;;;;;;;6.57;2.35;;;19.50;70.30;;;;;;6251935;23;20011;-93
2022/05/23 11:11:54;;;;;;;8.00;2.97;;;19.50;70.30;;;;;;6251635;23;20019;-93
2022/05/23 11:14:33;;;;;;;5.88;2.90;;;19.50;70.60;;;;;;6100730;23;20022;-93
2022/05/23 11:17:22;;;;;;;4.75;1.85;;;19.40;70.50;;;;;;6099824;23;20024;-94
2022/05/23 11:19:50;;;;;;;4.75;2.10;;;19.30;70.80;;;;;;6102265;23;20073;-95
2022/05/23 11:22:22;;;;;;;7.85;2.10;;;19.30;71.50;;;;;;6099477;23;20019;-94
2022/05/23 11:24:58;;;;;;;8.23;2.78;;;19.20;71.60;;;;;;6098335;23;20011;-95
2022/05/23 11:35:55;;;;;;;6.03;2.17;;;19.60;71.90;;;;;;6098578;23;20068;-95
2022/05/23 11:38:21;;;;;;;4.97;1.83;;;19.70;71.80;;;;;;6103845;23;20014;-92
2022/05/23 11:40:59;;;;;;;4.05;1.67;;;19.80;71.20;;;;;;6106120;23;20006;-93
2022/05/23 11:43:27;;;;;;;6.70;2.10;;;19.70;71.30;;;;;;6100625;23;20006;-95
2022/05/23 11:46:05;;;;;;;5.20;2.20;;;19.70;71.30;;;;;;6097591;23;20006;-94
2022/05/23 11:48:40;;;;;;;6.15;2.17;;;19.60;70.60;;;;;;6199757;23;20023;-92
2022/05/23 11:51:17;;;;;;;6.07;2.00;;;19.30;70.50;;;;;;6252892;23;20031;-94
2022/05/23 11:54:10;;;;;;;5.28;2.10;;;19.10;70.80;;;;;;6231773;23;20051;-95
2022/05/23 11:56:44;;;;;;;6.40;1.90;;;19.00;71.50;;;;;;6224186;23;20004;-93
2022/05/23 11:59:25;;;;;;;6.40;1.58;;;19.00;71.70;;;;;;6246059;23;20004;-93
2022/05/23 12:02:12;;;;;;;2.97;1.65;;;18.90;71.60;;;;;;6248326;23;20539;-92
2022/05/23 12:04:44;;;;;;;6.22;1.70;;;18.80;71.90;;;;;;6249262;23;20024;-92
2022/05/23 12:07:38;;;;;;;5.68;2.17;;;18.80;72.40;;;;;;6250367;23;20087;-92
2022/05/23 12:10:36;;;;;;;8.98;2.05;;;18.80;72.80;;;;;;6223187;23;20015;-93
2022/05/23 12:13:14;;;;;;;4.03;1.63;;;18.70;73.00;;;;;;6220563;23;20019;-94
2022/05/23 12:15:42;;;;;;;5.53;1.70;;;18.60;73.00;;;;;;6244681;23;20098;-94
2022/05/23 12:18:23;;;;;;;10.65;2.42;;;18.60;73.40;;;;;;6245820;23;20004;-93
2022/05/23 12:20:53;;;;;;;;;;;18.60;73.80;;;;;;6245562;23;20008;-93
2022/05/23 12:23:41;;;;;;;6.78;1.80;;;18.70;74.20;;;;;;6219902;23;19912;-93
2022/05/23 12:26:19;;;;;;;6.82;1.63;;;18.80;74.00;;;;;;6223228;23;20015;-91
2022/05/23 12:28:52;;;;;;;7.97;1.85;;;18.80;73.80;;;;;;6247500;23;20062;-92
2022/05/23 12:31:22;;;;;;;8.68;1.90;;;18.70;74.10;;;;;;6247206;23;20000;-92
2022/05/23 12:33:51;;;;;;;;;;;18.60;74.30;;;;;;6223138;23;20023;-92
2022/05/23 12:36:21;;;;;;;6.30;1.50;;;18.60;74.70;;;;;;6224696;23;19903;-95
2022/05/23 12:39:18;;;;;;;5.68;1.42;;;18.50;74.70;;;;;;6225012;23;20030;-92
2022/05/23 12:42:15;;;;;;;7.18;1.73;;;18.50;75.10;;;;;;6247178;23;20015;-93
2022/05/23 12:44:50;;;;;;;11.25;2.13;;;18.40;75.40;;;;;;6240712;23;20035;-92
2022/05/23 12:47:34;;;;;;;7.47;1.42;;;18.30;75.50;;;;;;6258482;23;20004;-93
2022/05/23 12:50:34;;;;;;;5.28;1.23;;;18.10;75.60;;;;;;6230643;23;20004;-94
2022/05/23 12:53:24;;;;;;;6.15;1.60;;;18.00;76.20;;;;;;6227794;23;20012;-91
2022/05/23 12:56:05;;;;;;;6.53;1.50;;;17.90;76.50;;;;;;6224692;23;20015;-93
2022/05/23 12:58:30;;;;;;;;;;;17.90;76.70;;;;;;6254583;23;20022;-94
2022/05/23 13:00:59;;;;;;;6.97;1.45;;;17.90;76.80;;;;;;6235187;23;19900;-92
2022/05/23 13:03:34;;;;;;;5.38;1.52;;;17.90;76.90;;;;;;6260905;23;20051;-95
2022/05/23 13:06:17;;;;;;;12.73;2.00;;;17.90;77.10;;;;;;6257302;23;20007;-94
2022/05/23 13:09:07;;;;;;;6.97;1.52;;;17.80;77.50;;;;;;6247030;23;20431;-96
2022/05/23 13:11:44;;;;;;;5.22;1.40;;;17.80;77.30;;;;;;6221168;23;20016;-93
2022/05/23 13:14:11;;;;;;;6.18;1.40;;;17.70;77.60;;;;;;6247940;23;20008;-95
2022/05/23 13:16:39;;;;;;;5.47;1.42;;;17.60;77.40;;;;;;6230215;23;20019;-96
2022/05/23 13:22:12;;;;;;;3.45;1.00;;;17.30;77.80;;;;;;6247144;23;20007;-95
2022/05/23 13:24:59;;;;;;;5.13;0.95;;;17.20;78.00;;;;;;6245467;23;20091;-94
2022/05/23 13:27:27;;;;;;;3.97;1.02;;;17.10;78.50;;;;;;6247710;23;20007;-93
2022/05/23 13:29:57;;;;;;;7.25;1.20;;;17.00;78.60;;;;;;6221327;23;20012;-94
2022/05/23 13:32:23;;;;;;;3.42;1.10;;;17.00;78.90;;;;;;6245981;23;20023;-95
2022/05/23 13:34:51;;;;;;;3.88;1.10;;;16.90;79.40;;;;;;6247524;23;20000;-95
2022/05/23 13:37:32;;;;;;;3.95;1.02;;;16.90;80.20;;;;;;6249407;23;19992;-95
2022/05/23 13:40:09;;;;;;;6.22;1.17;;;16.90;81.00;;;;;;6220864;23;19996;-94
2022/05/23 13:42:35;;;;;;;4.60;1.20;;;16.80;81.50;;;;;;6245517;23;20015;-94
2022/05/23 13:45:14;;;;;;;1.92;1.20;;;16.80;81.70;;;;;;6228334;23;20130;-95
2022/05/23 13:47:49;;;;;;;6.15;1.17;;;16.60;82.00;;;;;;6228626;23;20071;-95
2022/05/23 13:50:32;;;;;;;5.15;1.30;;;16.60;82.70;;;;;;6248833;23;20101;-94
2022/05/23 13:53:09;;;;;;;3.78;1.23;;;16.70;82.90;;;;;;6256310;23;20023;-94
2022/05/23 13:55:42;;;;;;;3.75;1.33;;;16.70;83.40;;;;;;6254079;22;20000;-95
2022/05/23 13:58:12;;;;;;;2.58;1.10;;;16.80;83.90;;;;;;6252884;23;20004;-94
2022/05/23 14:00:42;;;;;;;6.05;1.50;;;16.80;84.10;;;;;;6249777;23;20031;-94
2022/05/23 14:03:18;;;;;;;4.57;1.13;;;16.90;84.50;;;;;;6252347;23;20438;-93
2022/05/23 14:05:49;;;;;;;3.17;1.00;;;17.00;84.50;;;;;;6251014;23;20008;-95
2022/05/23 14:08:23;;;;;;;4.47;1.45;;;17.00;84.00;;;;;;6252233;23;20000;-94
2022/05/23 14:10:49;;;;;;;4.32;1.00;;;17.00;84.00;;;;;;6250267;23;20439;-94
2022/05/23 14:13:19;;;;;;;2.95;0.98;;;17.00;83.80;;;;;;6221084;23;20012;-95